createdAt,value
2022-12-29T00:02:12.718Z,8.25
2022-12-29T00:04:40.065Z,6.68
2022-12-29T00:07:07.807Z,6.80
2022-12-29T00:09:35.837Z,8.60
2022-12-29T00:12:04.005Z,7.97
2022-12-29T00:14:50.202Z,7.85
2022-12-29T00:17:17.535Z,10.05
2022-12-29T00:20:04.229Z,9.13
2022-12-29T00:22:50.235Z,7.45
2022-12-29T00:25:36.346Z,14.98
2022-12-29T00:28:22.334Z,7.75
2022-12-29T00:31:08.569Z,7.80
2022-12-29T00:33:54.592Z,5.65
2022-12-29T00:36:21.920Z,8.95
2022-12-29T00:39:10.431Z,5.68
2022-12-29T00:41:56.470Z,11.70
2022-12-29T00:44:24.014Z,6.80
2022-12-29T00:46:51.429Z,9.10
2022-12-29T00:49:34.149Z,6.85
2022-12-29T00:52:09.615Z,7.03
2022-12-29T00:54:38.134Z,7.95
2022-12-29T00:57:06.540Z,5.35
2022-12-29T00:59:36.420Z,7.75
2022-12-29T01:02:04.449Z,7.05
2022-12-29T01:04:31.888Z,6.22
2022-12-29T01:06:59.318Z,6.97
2022-12-29T01:09:45.542Z,6.45
2022-12-29T01:12:13.011Z,7.00
2022-12-29T01:14:41.985Z,6.88
2022-12-29T01:17:09.332Z,5.35
2022-12-29T01:19:36.654Z,8.02
2022-12-29T01:22:04.142Z,6.18
2022-12-29T01:24:31.577Z,7.93
2022-12-29T01:26:58.871Z,8.73
2022-12-29T01:29:26.404Z,7.43
2022-12-29T01:31:53.817Z,9.50
2022-12-29T01:34:21.159Z,11.95
2022-12-29T01:36:48.556Z,13.85
2022-12-29T01:39:16.021Z,7.63
2022-12-29T01:41:43.714Z,7.90
2022-12-29T01:44:29.898Z,6.05
2022-12-29T01:46:57.627Z,6.90
2022-12-29T01:49:26.429Z,7.00
2022-12-29T01:52:03.431Z,10.98
2022-12-29T01:54:35.826Z,7.25
2022-12-29T01:57:05.247Z,9.13
2022-12-29T01:59:41.640Z,8.10
2022-12-29T02:02:11.775Z,10.10
2022-12-29T02:04:42.032Z,10.70
2022-12-29T02:07:13.347Z,10.50
2022-12-29T02:09:40.876Z,9.32
2022-12-29T02:12:08.748Z,7.07
2022-12-29T02:14:36.217Z,8.07
2022-12-29T02:17:06.628Z,8.38
2022-12-29T02:19:34.728Z,6.13
2022-12-29T02:22:09.375Z,6.63
2022-12-29T02:24:43.164Z,5.53
2022-12-29T02:27:12.404Z,5.95
2022-12-29T02:29:39.822Z,6.90
2022-12-29T02:32:08.918Z,8.27
2022-12-29T02:34:37.581Z,5.72
2022-12-29T02:37:19.395Z,5.93
2022-12-29T02:39:52.919Z,5.90
2022-12-29T02:42:23.451Z,7.05
2022-12-29T02:45:01.764Z,6.53
2022-12-29T02:47:42.120Z,7.30
2022-12-29T02:50:16.252Z,6.35
2022-12-29T02:52:51.383Z,7.28
2022-12-29T02:55:18.932Z,5.60
2022-12-29T02:57:46.344Z,4.43
2022-12-29T03:00:16.384Z,5.03
2022-12-29T03:02:54.385Z,6.05
2022-12-29T03:05:24.742Z,7.32
2022-12-29T03:08:10.980Z,6.75
2022-12-29T03:10:57.441Z,4.78
2022-12-29T03:14:01.712Z,4.57
2022-12-29T03:16:38.368Z,5.68
2022-12-29T03:19:11.788Z,5.25
2022-12-29T03:22:00.182Z,5.55
2022-12-29T03:24:33.079Z,7.70
2022-12-29T03:27:02.820Z,8.15
2022-12-29T03:29:37.373Z,4.40
2022-12-29T03:32:06.456Z,7.00
2022-12-29T03:34:35.153Z,4.53
2022-12-29T03:37:04.260Z,7.68
2022-12-29T03:39:31.764Z,9.75
2022-12-29T03:42:10.919Z,5.63
2022-12-29T03:44:40.236Z,5.60
2022-12-29T03:47:08.741Z,8.13
2022-12-29T03:49:36.310Z,6.22
2022-12-29T03:52:05.266Z,7.20
2022-12-29T03:54:36.799Z,8.88
2022-12-29T03:57:04.240Z,8.52
2022-12-29T03:59:45.325Z,9.07
2022-12-29T04:02:13.173Z,8.60
2022-12-29T04:04:43.332Z,9.57
2022-12-29T04:07:15.050Z,9.60
2022-12-29T04:09:47.052Z,13.15
2022-12-29T04:12:20.283Z,13.38
2022-12-29T04:14:48.822Z,13.70
2022-12-29T04:17:16.363Z,11.20
2022-12-29T04:19:53.283Z,10.38
2022-12-29T04:22:20.816Z,15.48
2022-12-29T04:24:48.264Z,15.32
2022-12-29T04:27:17.783Z,16.08
2022-12-29T04:30:05.160Z,12.38
2022-12-29T04:32:54.641Z,12.25
2022-12-29T04:35:21.950Z,15.50
2022-12-29T04:37:49.874Z,17.20
2022-12-29T04:40:17.205Z,15.00
2022-12-29T04:42:44.839Z,16.15
2022-12-29T04:45:12.551Z,12.40
2022-12-29T04:47:59.706Z,12.75
2022-12-29T04:50:38.649Z,11.00
2022-12-29T04:53:15.415Z,16.30
2022-12-29T04:55:43.859Z,12.13
2022-12-29T04:58:11.206Z,11.70
2022-12-29T05:00:42.156Z,13.02
2022-12-29T05:03:09.931Z,9.00
2022-12-29T05:05:40.273Z,8.20
2022-12-29T05:08:07.632Z,10.10
2022-12-29T05:10:35.728Z,9.15
2022-12-29T05:13:08.916Z,12.40
2022-12-29T05:15:37.926Z,12.45
2022-12-29T05:18:05.248Z,11.23
2022-12-29T05:20:32.538Z,9.60
2022-12-29T05:23:00.296Z,7.78
2022-12-29T05:25:28.067Z,11.57
2022-12-29T05:28:10.149Z,9.00
2022-12-29T05:30:44.352Z,14.23
2022-12-29T05:33:12.649Z,9.55
2022-12-29T05:35:43.899Z,11.57
2022-12-29T05:38:11.470Z,9.60
2022-12-29T05:40:39.247Z,7.13
2022-12-29T05:43:15.542Z,8.25
2022-12-29T05:46:03.427Z,9.57
2022-12-29T05:48:49.551Z,8.73
2022-12-29T05:51:40.158Z,8.80
2022-12-29T05:54:08.084Z,7.45
2022-12-29T05:56:42.638Z,6.28
2022-12-29T05:59:12.171Z,8.55
2022-12-29T06:01:48.134Z,7.47
2022-12-29T06:04:27.896Z,8.43
2022-12-29T06:06:59.117Z,8.00
2022-12-29T06:09:50.228Z,7.63
2022-12-29T06:12:28.463Z,6.63
2022-12-29T06:15:02.664Z,8.20
2022-12-29T06:17:33.361Z,8.75
2022-12-29T06:20:06.292Z,5.90
2022-12-29T06:22:36.267Z,8.03
2022-12-29T06:25:06.858Z,6.78
2022-12-29T06:27:44.088Z,9.40
2022-12-29T06:30:12.088Z,7.43
2022-12-29T06:32:43.015Z,5.78
2022-12-29T06:35:13.734Z,10.32
2022-12-29T06:37:53.458Z,6.68
2022-12-29T06:40:49.287Z,8.95
2022-12-29T06:43:53.318Z,6.45
2022-12-29T06:46:26.340Z,5.55
2022-12-29T06:48:59.736Z,5.70
2022-12-29T06:51:36.137Z,7.43
2022-12-29T06:54:07.930Z,7.55
2022-12-29T06:56:48.818Z,7.53
2022-12-29T06:59:19.618Z,9.85
2022-12-29T07:01:51.080Z,6.80
2022-12-29T07:04:27.384Z,6.47
2022-12-29T07:06:58.855Z,6.63
2022-12-29T07:09:37.883Z,6.88
2022-12-29T07:12:18.167Z,8.55
2022-12-29T07:14:45.650Z,8.23
2022-12-29T07:17:18.062Z,8.57
2022-12-29T07:19:50.353Z,7.22
2022-12-29T07:22:19.531Z,7.13
2022-12-29T07:24:47.769Z,8.77
2022-12-29T07:27:15.222Z,7.45
2022-12-29T07:29:46.408Z,9.50
2022-12-29T07:32:22.748Z,9.70
2022-12-29T07:34:54.888Z,8.25
2022-12-29T07:37:36.795Z,8.98
2022-12-29T07:40:04.682Z,7.10
2022-12-29T07:42:42.555Z,8.25
2022-12-29T07:45:11.084Z,8.13
2022-12-29T07:47:52.480Z,9.20
2022-12-29T07:50:30.819Z,9.00
2022-12-29T07:52:59.327Z,8.73
2022-12-29T07:55:31.631Z,11.27
2022-12-29T07:58:04.564Z,8.13
2022-12-29T08:00:32.427Z,8.13
2022-12-29T08:03:00.138Z,8.60
2022-12-29T08:05:31.520Z,7.70
2022-12-29T08:07:58.900Z,10.73
2022-12-29T08:10:26.579Z,8.10
2022-12-29T08:12:55.623Z,9.20
2022-12-29T08:15:28.657Z,11.00
2022-12-29T08:17:59.644Z,8.65
2022-12-29T08:20:27.223Z,10.70
2022-12-29T08:22:54.692Z,11.60
2022-12-29T08:25:24.756Z,9.80
2022-12-29T08:27:55.285Z,13.65
2022-12-29T08:30:25.155Z,11.73
2022-12-29T08:32:52.471Z,15.00
2022-12-29T08:35:19.862Z,8.77
2022-12-29T08:37:47.142Z,12.02
2022-12-29T08:40:14.828Z,10.45
2022-12-29T08:42:43.116Z,11.35
2022-12-29T08:45:10.560Z,10.77
2022-12-29T08:47:37.826Z,10.43
2022-12-29T08:50:05.424Z,9.57
2022-12-29T08:52:32.739Z,9.23
2022-12-29T08:54:59.977Z,11.82
2022-12-29T08:57:27.767Z,12.13
2022-12-29T09:00:24.369Z,8.20
2022-12-29T09:02:52.708Z,12.77
2022-12-29T09:05:20.132Z,12.38
2022-12-29T09:07:47.456Z,11.25
2022-12-29T09:10:14.722Z,12.40
2022-12-29T09:12:42.103Z,10.38
2022-12-29T09:15:09.621Z,9.32
2022-12-29T09:17:46.342Z,10.38
2022-12-29T09:20:14.415Z,8.80
2022-12-29T09:22:41.935Z,9.85
2022-12-29T09:25:10.192Z,10.13
2022-12-29T09:27:37.894Z,9.73
2022-12-29T09:30:07.332Z,10.15
2022-12-29T09:32:37.861Z,10.60
2022-12-29T09:35:07.855Z,17.67
2022-12-29T09:37:35.114Z,11.48
2022-12-29T09:40:02.433Z,7.45
2022-12-29T09:42:35.731Z,7.78
2022-12-29T09:45:09.936Z,8.27
2022-12-29T09:47:43.029Z,6.63
2022-12-29T09:50:29.551Z,7.32
2022-12-29T09:53:00.662Z,7.70
2022-12-29T09:55:33.183Z,8.67
2022-12-29T09:58:03.818Z,10.27
2022-12-29T10:00:55.396Z,8.48
2022-12-29T10:03:24.544Z,10.07
2022-12-29T10:05:57.983Z,8.77
2022-12-29T10:08:29.212Z,8.77
2022-12-29T10:11:03.132Z,11.30
2022-12-29T10:13:59.327Z,7.13
2022-12-29T10:16:43.136Z,7.72
2022-12-29T10:19:13.657Z,11.10
2022-12-29T10:21:49.378Z,5.88
2022-12-29T10:24:19.096Z,8.35
2022-12-29T10:26:48.446Z,12.23
2022-12-29T10:29:23.745Z,8.38
2022-12-29T10:31:58.212Z,8.65
2022-12-29T10:34:41.023Z,7.63
2022-12-29T10:37:14.664Z,8.07
2022-12-29T10:39:51.524Z,6.57
2022-12-29T10:42:51.422Z,7.82
2022-12-29T10:45:30.734Z,8.25
2022-12-29T10:48:04.837Z,7.07
2022-12-29T10:50:32.390Z,6.50
2022-12-29T10:53:04.864Z,8.50
2022-12-29T10:55:37.565Z,8.95
2022-12-29T10:58:06.688Z,8.63
2022-12-29T11:00:34.728Z,6.10
2022-12-29T11:03:20.319Z,10.63
2022-12-29T11:05:54.147Z,10.93
2022-12-29T11:08:24.303Z,8.32
2022-12-29T11:11:05.408Z,7.32
2022-12-29T11:13:38.855Z,8.73
2022-12-29T11:16:07.396Z,8.25
2022-12-29T11:18:38.415Z,9.02
2022-12-29T11:21:07.841Z,7.68
2022-12-29T11:23:38.369Z,9.15
2022-12-29T11:26:12.055Z,6.28
2022-12-29T11:28:43.094Z,7.55
2022-12-29T11:31:17.334Z,9.43
2022-12-29T11:33:44.793Z,6.50
2022-12-29T11:36:12.196Z,10.75
2022-12-29T11:38:44.239Z,7.95
2022-12-29T11:43:39.992Z,6.20
2022-12-29T11:46:16.428Z,5.95
2022-12-29T11:48:48.976Z,7.07
2022-12-29T11:51:25.404Z,5.82
2022-12-29T11:53:55.091Z,10.27
2022-12-29T11:56:38.334Z,10.18
2022-12-29T11:59:26.577Z,10.73
2022-12-29T12:01:54.777Z,11.25
2022-12-29T12:04:24.670Z,14.77
2022-12-29T12:07:03.986Z,9.80
2022-12-29T12:09:34.167Z,8.90
2022-12-29T12:12:02.885Z,7.93
2022-12-29T12:14:33.376Z,7.50
2022-12-29T12:17:28.404Z,7.43
2022-12-29T12:20:00.481Z,6.28
2022-12-29T12:25:01.438Z,12.98
2022-12-29T12:27:34.015Z,10.00
2022-12-29T12:30:05.119Z,11.18
2022-12-29T12:32:48.314Z,10.90
2022-12-29T12:35:21.781Z,14.25
2022-12-29T12:38:08.442Z,10.68
2022-12-29T12:40:50.003Z,7.15
2022-12-29T12:43:36.557Z,7.63
2022-12-29T12:46:23.335Z,7.20
2022-12-29T12:48:57.546Z,8.45
2022-12-29T12:51:34.164Z,16.35
2022-12-29T12:54:18.215Z,12.15
2022-12-29T12:56:51.348Z,12.65
2022-12-29T12:59:25.155Z,7.40
2022-12-29T13:02:11.487Z,10.48
2022-12-29T13:04:45.154Z,7.55
2022-12-29T13:07:22.652Z,6.70
2022-12-29T13:09:55.790Z,8.52
2022-12-29T13:12:26.553Z,6.93
2022-12-29T13:15:01.180Z,8.23
2022-12-29T13:17:37.608Z,11.10
2022-12-29T13:20:22.975Z,7.32
2022-12-29T13:22:59.569Z,9.23
2022-12-29T13:25:29.748Z,11.00
2022-12-29T13:28:18.155Z,9.15
2022-12-29T13:31:05.146Z,11.90
2022-12-29T13:33:39.541Z,10.30
2022-12-29T13:36:11.164Z,9.32
2022-12-29T13:38:46.305Z,7.20
2022-12-29T13:41:20.657Z,8.15
2022-12-29T13:43:53.658Z,8.65
2022-12-29T13:46:28.650Z,7.82
2022-12-29T13:49:19.359Z,10.00
2022-12-29T13:51:56.005Z,6.80
2022-12-29T13:54:30.477Z,6.57
2022-12-29T13:57:16.824Z,7.28
2022-12-29T13:59:47.385Z,7.10
2022-12-29T14:02:19.960Z,10.27
2022-12-29T14:05:10.368Z,8.95
2022-12-29T14:07:50.728Z,8.93
2022-12-29T14:10:32.381Z,13.35
2022-12-29T14:13:16.591Z,8.83
2022-12-29T14:15:47.450Z,9.82
2022-12-29T14:18:26.154Z,11.43
2022-12-29T14:21:01.558Z,15.13
2022-12-29T14:23:42.670Z,18.13
2022-12-29T14:26:39.273Z,16.02
2022-12-29T14:29:18.395Z,16.77
2022-12-29T14:31:55.181Z,11.57
2022-12-29T14:34:22.622Z,17.35
2022-12-29T14:36:59.786Z,15.15
2022-12-29T14:39:30.563Z,13.20
2022-12-29T14:42:02.071Z,11.18
2022-12-29T14:44:34.713Z,14.95
2022-12-29T14:47:07.500Z,8.40
2022-12-29T14:49:41.303Z,10.15
2022-12-29T14:52:16.737Z,10.43
2022-12-29T14:54:45.972Z,9.55
2022-12-29T14:57:35.908Z,10.70
2022-12-29T15:00:07.489Z,14.75
2022-12-29T15:02:39.394Z,14.38
2022-12-29T15:07:37.958Z,12.95
2022-12-29T15:10:08.110Z,16.35
2022-12-29T15:12:38.940Z,28.23
2022-12-29T15:15:32.735Z,23.02
2022-12-29T15:18:13.554Z,26.23
2022-12-29T15:20:40.999Z,39.22
2022-12-29T15:23:12.942Z,62.70
2022-12-29T15:25:57.370Z,60.60
2022-12-29T15:28:25.099Z,53.45
2022-12-29T15:30:56.943Z,54.00
2022-12-29T15:33:26.004Z,34.40
2022-12-29T15:35:54.000Z,34.03
2022-12-29T15:38:31.120Z,20.92
2022-12-29T15:41:02.838Z,15.32
2022-12-29T15:43:32.889Z,13.40
2022-12-29T15:46:02.405Z,11.10
2022-12-29T15:48:29.897Z,7.55
2022-12-29T15:51:06.428Z,7.28
2022-12-29T15:53:34.679Z,10.40
2022-12-29T15:56:04.089Z,8.48
2022-12-29T15:58:40.637Z,8.48
2022-12-29T16:01:20.879Z,10.93
2022-12-29T16:03:48.894Z,12.55
2022-12-29T16:06:25.141Z,10.98
2022-12-29T16:09:03.765Z,11.02
2022-12-29T16:11:34.363Z,13.20
2022-12-29T16:14:03.630Z,18.42
2022-12-29T16:16:37.341Z,20.45
2022-12-29T16:19:10.641Z,23.40
2022-12-29T16:21:38.009Z,13.20
2022-12-29T16:24:10.855Z,15.35
2022-12-29T16:26:38.269Z,10.98
2022-12-29T16:29:08.425Z,11.63
2022-12-29T16:31:51.266Z,9.05
2022-12-29T16:34:24.404Z,15.05
2022-12-29T16:36:56.083Z,12.32
2022-12-29T16:39:23.320Z,12.98
2022-12-29T16:41:51.288Z,13.45
2022-12-29T16:44:19.704Z,14.02
2022-12-29T16:46:59.630Z,21.80
2022-12-29T16:49:27.777Z,25.40
2022-12-29T16:51:56.084Z,22.20
2022-12-29T16:54:24.769Z,11.98
2022-12-29T16:56:53.526Z,11.18
2022-12-29T16:59:23.501Z,12.38
2022-12-29T17:01:53.043Z,15.57
2022-12-29T17:04:20.440Z,16.33
2022-12-29T17:06:47.713Z,15.45
2022-12-29T17:09:19.916Z,16.65
2022-12-29T17:12:00.423Z,15.60
2022-12-29T17:14:32.452Z,13.68
2022-12-29T17:17:01.009Z,12.40
2022-12-29T17:19:30.891Z,13.95
2022-12-29T17:21:58.404Z,11.93
2022-12-29T17:24:25.964Z,12.77
2022-12-29T17:26:55.061Z,13.63
2022-12-29T17:29:28.522Z,15.15
2022-12-29T17:31:55.782Z,12.35
2022-12-29T17:34:23.112Z,12.70
2022-12-29T17:36:50.513Z,14.05
2022-12-29T17:39:17.776Z,12.55
2022-12-29T17:41:45.746Z,11.52
2022-12-29T17:44:19.770Z,12.75
2022-12-29T17:46:47.723Z,14.38
2022-12-29T17:49:16.083Z,18.35
2022-12-29T17:51:44.227Z,13.48
2022-12-29T17:54:22.257Z,12.05
2022-12-29T17:56:49.950Z,13.93
2022-12-29T17:59:17.719Z,14.85
2022-12-29T18:01:46.103Z,16.70
2022-12-29T18:04:20.709Z,26.17
2022-12-29T18:06:47.963Z,15.25
2022-12-29T18:09:17.066Z,15.85
2022-12-29T18:11:45.010Z,19.75
2022-12-29T18:14:14.149Z,20.30
2022-12-29T18:16:41.444Z,18.17
2022-12-29T18:19:09.455Z,33.35
2022-12-29T18:21:37.341Z,24.30
2022-12-29T18:24:04.648Z,24.60
2022-12-29T18:26:35.481Z,19.23
2022-12-29T18:29:03.040Z,15.82
2022-12-29T18:31:31.806Z,13.90
2022-12-29T18:34:00.115Z,17.02
2022-12-29T18:36:27.931Z,19.65
2022-12-29T18:38:55.681Z,21.25
2022-12-29T18:41:28.946Z,20.83
2022-12-29T18:43:56.269Z,21.40
2022-12-29T18:46:23.922Z,15.85
2022-12-29T18:48:52.013Z,14.10
2022-12-29T18:51:23.800Z,16.25
2022-12-29T18:53:53.737Z,12.88
2022-12-29T18:56:22.421Z,11.90
2022-12-29T18:58:50.016Z,13.85
2022-12-29T19:01:22.015Z,14.50
2022-12-29T19:03:49.709Z,14.88
2022-12-29T19:06:17.090Z,14.35
2022-12-29T19:08:44.429Z,13.27
2022-12-29T19:11:11.833Z,14.40
2022-12-29T19:13:40.340Z,15.95
2022-12-29T19:16:08.783Z,18.08
2022-12-29T19:18:45.410Z,13.98
2022-12-29T19:21:14.989Z,15.23
2022-12-29T19:23:42.241Z,15.80
2022-12-29T19:26:21.188Z,18.02
2022-12-29T19:28:48.397Z,14.15
2022-12-29T19:31:15.679Z,14.93
2022-12-29T19:33:42.991Z,14.93
2022-12-29T19:36:10.266Z,12.10
2022-12-29T19:38:37.461Z,14.65
2022-12-29T19:41:07.549Z,11.63
2022-12-29T19:43:34.817Z,12.23
2022-12-29T19:46:07.721Z,14.18
2022-12-29T19:48:34.928Z,15.32
2022-12-29T19:51:13.647Z,20.38
2022-12-29T19:53:40.913Z,12.77
2022-12-29T19:56:09.036Z,9.88
2022-12-29T19:58:41.553Z,11.38
2022-12-29T20:01:12.811Z,13.55
2022-12-29T20:03:40.712Z,17.52
2022-12-29T20:06:08.896Z,14.55
2022-12-29T20:08:37.065Z,15.27
2022-12-29T20:11:04.298Z,14.50
2022-12-29T20:13:35.428Z,15.25
2022-12-29T20:16:04.193Z,14.50
2022-12-29T20:18:31.834Z,16.63
2022-12-29T20:21:06.226Z,14.20
2022-12-29T20:23:33.549Z,13.68
2022-12-29T20:26:01.445Z,12.02
2022-12-29T20:28:29.582Z,12.82
2022-12-29T20:30:58.548Z,8.98
2022-12-29T20:33:26.050Z,10.55
2022-12-29T20:35:53.790Z,12.40
2022-12-29T20:38:21.332Z,12.00
2022-12-29T20:40:48.645Z,10.88
2022-12-29T20:43:16.305Z,13.05
2022-12-29T20:45:46.037Z,13.63
2022-12-29T20:48:13.437Z,12.57
2022-12-29T20:50:40.719Z,13.57
2022-12-29T20:53:07.958Z,13.38
2022-12-29T20:55:35.562Z,13.13
2022-12-29T21:00:50.347Z,14.48
2022-12-29T21:03:17.755Z,16.20
2022-12-29T21:05:45.097Z,14.23
2022-12-29T21:08:12.459Z,15.13
2022-12-29T21:10:39.963Z,17.70
2022-12-29T21:13:07.238Z,15.38
2022-12-29T21:15:34.517Z,17.48
2022-12-29T21:18:01.765Z,14.95
2022-12-29T21:20:32.153Z,18.00
2022-12-29T21:23:00.966Z,21.80
2022-12-29T21:25:37.073Z,17.27
2022-12-29T21:28:08.322Z,14.52
2022-12-29T21:30:35.824Z,15.30
2022-12-29T21:33:03.358Z,12.27
2022-12-29T21:35:30.769Z,13.98
2022-12-29T21:37:58.239Z,13.65
2022-12-29T21:40:25.556Z,13.80
2022-12-29T21:42:52.822Z,12.88
2022-12-29T21:45:26.003Z,12.93
2022-12-29T21:48:12.768Z,12.13
2022-12-29T21:50:59.600Z,14.07
2022-12-29T21:53:37.712Z,32.60
2022-12-29T21:56:06.241Z,11.65
2022-12-29T21:58:52.418Z,12.15
2022-12-29T22:01:39.060Z,8.45
2022-12-29T22:04:35.431Z,10.63
2022-12-29T22:07:26.497Z,9.45
2022-12-29T22:10:22.388Z,11.25
2022-12-29T22:13:07.767Z,8.23
2022-12-29T22:15:42.626Z,9.10
2022-12-29T22:18:15.983Z,10.63
2022-12-29T22:20:44.208Z,10.95
2022-12-29T22:23:11.528Z,9.18
2022-12-29T22:25:40.909Z,9.93
2022-12-29T22:28:09.829Z,8.88
2022-12-29T22:30:37.350Z,6.53
2022-12-29T22:33:04.747Z,6.82
2022-12-29T22:35:32.143Z,10.98
2022-12-29T22:37:59.547Z,12.80
2022-12-29T22:40:26.855Z,11.98
2022-12-29T22:42:54.199Z,15.68
2022-12-29T22:45:21.930Z,13.15
2022-12-29T22:47:50.973Z,12.77
2022-12-29T22:50:22.022Z,10.07
2022-12-29T22:52:49.387Z,20.38
2022-12-29T22:55:16.729Z,15.77
2022-12-29T22:57:44.033Z,17.30
2022-12-29T23:00:11.691Z,16.25
2022-12-29T23:02:45.161Z,13.05
2022-12-29T23:05:12.814Z,16.23
2022-12-29T23:07:48.424Z,17.15
2022-12-29T23:10:15.818Z,10.80
2022-12-29T23:12:43.184Z,12.35
2022-12-29T23:15:14.446Z,10.15
2022-12-29T23:17:44.025Z,9.57
2022-12-29T23:20:23.698Z,9.00
2022-12-29T23:22:51.552Z,9.80
2022-12-29T23:25:20.825Z,9.55
2022-12-29T23:27:48.724Z,7.28
2022-12-29T23:30:16.032Z,8.60
2022-12-29T23:32:43.319Z,6.38
2022-12-29T23:35:11.621Z,8.50
2022-12-29T23:37:39.090Z,7.50
2022-12-29T23:40:09.596Z,8.65
2022-12-29T23:42:37.543Z,7.43
2022-12-29T23:45:07.460Z,8.18
2022-12-29T23:47:35.736Z,5.32
2022-12-29T23:50:03.553Z,8.95
2022-12-29T23:52:31.837Z,6.30
2022-12-29T23:54:59.792Z,7.97
2022-12-29T23:57:27.625Z,11.35
2022-12-29T23:59:54.897Z,7.78
